Terminal Aerodrome Forecast
Issued by NWS

Current Version | Previous Version | Text Only | Print | Product List | Glossary Off
Versions: 1 2 3 4 5 6 7 8 9 10 11 12 13 14 15 16 17 18 19 20 21 22

021
FTUS41 KPBZ 250901 AAA
TAFMGW
TAF AMD
KMGW 250901Z 2509/2606 23005KT P6SM BKN120
     FM251700 24007KT P6SM VCTS BKN040CB
     FM252100 24008KT P6SM -SHRA VCTS BKN040CB
     FM260200 24004KT P6SM VCTS BKN040CB=

USA.gov is the U.S. government's official web portal to all federal, state and local government web resources and services.